Time,TemperatureF,DewpointF,PressureIn,WindDirection,WindDirectionDegrees,WindSpeedMPH,WindSpeedGustMPH,Humidity,HourlyPrecipIn,Conditions,Clouds,dailyrainin,SolarRadiationWatts/m^2,SoftwareType,DateUTC
2013-09-05 00:00:00,73.5,66.6,30.09,ENE,70,0.0,1.0,79,0.00,,,0.00,0,Wunderground v.1.15,2013-09-04 22:00:00,
2013-09-05 00:05:00,73.5,66.2,30.09,ENE,70,0.0,1.0,78,0.00,,,0.00,0,Wunderground v.1.15,2013-09-04 22:05:00,
2013-09-05 00:10:00,73.4,66.1,30.09,ENE,70,0.0,0.0,78,0.00,,,0.00,0,Wunderground v.1.15,2013-09-04 22:10:00,
2013-09-05 00:16:00,73.2,65.9,30.09,ENE,70,0.0,0.0,78,0.00,,,0.00,0,Wunderground v.1.15,2013-09-04 22:16:00,
2013-09-05 00:26:00,73.2,65.2,30.08,ENE,70,1.0,2.0,76,0.00,,,0.00,0,Wunderground v.1.15,2013-09-04 22:26:00,
2013-09-05 00:31:00,73.1,64.7,30.08,ENE,70,2.0,2.0,75,0.00,,,0.00,0,Wunderground v.1.15,2013-09-04 22:31:00,
2013-09-05 00:40:00,73.0,65.0,30.08,ENE,70,1.0,1.0,76,0.00,,,0.00,0,Wunderground v.1.15,2013-09-04 22:40:00,
2013-09-05 00:45:00,72.3,65.8,30.08,ENE,70,0.0,1.0,80,0.00,,,0.00,0,Wunderground v.1.15,2013-09-04 22:45:00,
2013-09-05 00:50:00,72.1,64.1,30.08,ENE,70,0.0,2.0,76,0.00,,,0.00,0,Wunderground v.1.15,2013-09-04 22:50:00,
2013-09-05 01:00:00,72.6,63.4,30.08,ENE,70,2.0,2.0,73,0.00,,,0.00,0,Wunderground v.1.15,2013-09-04 23:00:00,
2013-09-05 01:06:00,72.4,64.0,30.08,ENE,70,1.0,2.0,75,0.00,,,0.00,0,Wunderground v.1.15,2013-09-04 23:06:00,
2013-09-05 01:11:00,72.3,63.9,30.08,ENE,70,0.0,0.0,75,0.00,,,0.00,0,Wunderground v.1.15,2013-09-04 23:11:00,
2013-09-05 01:20:00,72.4,63.6,30.08,ENE,70,0.0,0.0,74,0.00,,,0.00,0,Wunderground v.1.15,2013-09-04 23:20:00,
2013-09-05 01:25:00,72.5,63.7,30.08,ENE,70,0.0,0.0,74,0.00,,,0.00,0,Wunderground v.1.15,2013-09-04 23:25:00,
2013-09-05 01:30:00,72.5,63.7,30.07,ENE,70,0.0,0.0,74,0.00,,,0.00,0,Wunderground v.1.15,2013-09-04 23:30:00,
2013-09-05 01:35:00,72.3,63.2,30.07,ENE,70,0.0,0.0,73,0.00,,,0.00,0,Wunderground v.1.15,2013-09-04 23:35:00,
2013-09-05 01:40:00,72.2,63.4,30.07,ENE,70,1.0,1.0,74,0.00,,,0.00,0,Wunderground v.1.15,2013-09-04 23:40:00,
2013-09-05 01:46:00,72.0,63.3,30.07,ENE,70,1.0,1.0,74,0.00,,,0.00,0,Wunderground v.1.15,2013-09-04 23:46:00,
2013-09-05 01:51:00,71.9,63.5,30.07,ENE,70,1.0,2.0,75,0.00,,,0.00,0,Wunderground v.1.15,2013-09-04 23:51:00,
2013-09-05 01:56:00,71.8,63.4,30.07,East,84,2.0,2.0,75,0.00,,,0.00,0,Wunderground v.1.15,2013-09-04 23:56:00,
2013-09-05 02:05:00,71.6,63.3,30.07,ENE,65,2.0,3.0,75,0.00,,,0.00,0,Wunderground v.1.15,2013-09-05 00:05:00,
2013-09-05 02:10:00,71.7,63.0,30.07,ENE,65,1.0,1.0,74,0.00,,,0.00,0,Wunderground v.1.15,2013-09-05 00:10:00,
2013-09-05 02:15:00,71.6,62.9,30.07,NE,56,1.0,3.0,74,0.00,,,0.00,0,Wunderground v.1.15,2013-09-05 00:15:00,
2013-09-05 02:20:00,71.5,62.4,30.07,NE,55,2.0,3.0,73,0.00,,,0.00,0,Wunderground v.1.15,2013-09-05 00:20:00,
2013-09-05 02:25:00,71.6,62.1,30.07,NE,46,3.0,3.0,72,0.00,,,0.00,0,Wunderground v.1.15,2013-09-05 00:25:00,
2013-09-05 02:30:00,71.6,61.7,30.06,NE,54,3.0,4.0,71,0.00,,,0.00,0,Wunderground v.1.15,2013-09-05 00:30:00,
2013-09-05 02:36:00,71.6,61.3,30.06,NE,39,4.0,4.0,70,0.00,,,0.00,0,Wunderground v.1.15,2013-09-05 00:36:00,
2013-09-05 02:46:00,71.3,61.4,30.07,ESE,123,1.0,3.0,71,0.00,,,0.00,0,Wunderground v.1.15,2013-09-05 00:46:00,
2013-09-05 02:51:00,71.2,61.7,30.06,ESE,123,0.0,0.0,72,0.00,,,0.00,0,Wunderground v.1.15,2013-09-05 00:51:00,
2013-09-05 03:00:00,70.9,61.4,30.06,ESE,121,1.0,2.0,72,0.00,,,0.00,0,Wunderground v.1.15,2013-09-05 01:00:00,
2013-09-05 03:05:00,71.0,61.5,30.06,NE,44,1.0,3.0,72,0.00,,,0.00,0,Wunderground v.1.15,2013-09-05 01:05:00,
2013-09-05 03:15:00,70.7,61.6,30.05,ENE,69,3.0,4.0,73,0.00,,,0.00,0,Wunderground v.1.15,2013-09-05 01:15:00,
2013-09-05 03:20:00,70.4,61.3,30.06,NE,52,3.0,4.0,73,0.00,,,0.00,0,Wunderground v.1.15,2013-09-05 01:20:00,
2013-09-05 03:25:00,70.3,60.8,30.06,NE,45,4.0,4.0,72,0.00,,,0.00,0,Wunderground v.1.15,2013-09-05 01:25:00,
2013-09-05 03:30:00,70.4,60.9,30.05,ENE,68,4.0,4.0,72,0.00,,,0.00,0,Wunderground v.1.15,2013-09-05 01:30:00,
2013-09-05 03:36:00,70.5,60.6,30.05,NE,50,4.0,4.0,71,0.00,,,0.00,0,Wunderground v.1.15,2013-09-05 01:36:00,
2013-09-05 03:41:00,70.5,60.6,30.05,NE,44,3.0,3.0,71,0.00,,,0.00,0,Wunderground v.1.15,2013-09-05 01:41:00,
2013-09-05 03:51:00,70.6,60.3,30.06,SE,129,2.0,2.0,70,0.00,,,0.00,0,Wunderground v.1.15,2013-09-05 01:51:00,
2013-09-05 04:00:00,70.3,60.4,30.05,ENE,63,1.0,2.0,71,0.00,,,0.00,0,Wunderground v.1.15,2013-09-05 02:00:00,
2013-09-05 04:05:00,70.1,60.3,30.05,ENE,71,2.0,3.0,71,0.00,,,0.00,0,Wunderground v.1.15,2013-09-05 02:05:00,
2013-09-05 04:10:00,69.8,60.4,30.05,ENE,71,2.0,2.0,72,0.00,,,0.00,0,Wunderground v.1.15,2013-09-05 02:10:00,
2013-09-05 04:15:00,69.5,60.1,30.05,ENE,74,2.0,5.0,72,0.00,,,0.00,0,Wunderground v.1.15,2013-09-05 02:15:00,
2013-09-05 04:21:00,69.5,60.1,30.05,NE,54,3.0,3.0,72,0.00,,,0.00,0,Wunderground v.1.15,2013-09-05 02:21:00,
2013-09-05 04:25:00,69.6,60.2,30.05,ENE,77,3.0,3.0,72,0.00,,,0.00,0,Wunderground v.1.15,2013-09-05 02:25:00,
2013-09-05 04:31:00,69.5,60.1,30.05,ENE,65,2.0,2.0,72,0.00,,,0.00,0,Wunderground v.1.15,2013-09-05 02:31:00,
2013-09-05 04:36:00,69.4,60.0,30.05,ENE,65,1.0,2.0,72,0.00,,,0.00,0,Wunderground v.1.15,2013-09-05 02:36:00,
2013-09-05 04:45:00,69.0,60.0,30.05,ENE,69,2.0,2.0,73,0.00,,,0.00,0,Wunderground v.1.15,2013-09-05 02:45:00,
2013-09-05 04:50:00,68.9,60.3,30.05,ENE,69,1.0,1.0,74,0.00,,,0.00,0,Wunderground v.1.15,2013-09-05 02:50:00,
2013-09-05 04:55:00,68.9,60.3,30.04,ENE,69,1.0,1.0,74,0.00,,,0.00,0,Wunderground v.1.15,2013-09-05 02:55:00,
2013-09-05 05:05:00,68.9,60.3,30.04,ENE,69,1.0,2.0,74,0.00,,,0.00,0,Wunderground v.1.15,2013-09-05 03:05:00,
2013-09-05 05:11:00,68.9,60.3,30.04,ENE,74,1.0,3.0,74,0.00,,,0.00,0,Wunderground v.1.15,2013-09-05 03:11:00,
2013-09-05 05:16:00,68.9,59.9,30.04,ENE,70,2.0,3.0,73,0.00,,,0.00,0,Wunderground v.1.15,2013-09-05 03:16:00,
2013-09-05 05:21:00,69.0,60.0,30.03,East,80,3.0,3.0,73,0.00,,,0.00,0,Wunderground v.1.15,2013-09-05 03:21:00,
2013-09-05 05:30:00,69.0,59.6,30.03,East,79,2.0,2.0,72,0.00,,,0.00,0,Wunderground v.1.15,2013-09-05 03:30:00,
2013-09-05 05:35:00,69.0,59.6,30.03,ENE,71,2.0,2.0,72,0.00,,,0.00,0,Wunderground v.1.15,2013-09-05 03:35:00,
2013-09-05 05:40:00,68.9,59.9,30.03,ENE,71,1.0,1.0,73,0.00,,,0.00,0,Wunderground v.1.15,2013-09-05 03:40:00,
2013-09-05 05:45:00,68.9,59.9,30.03,ENE,73,1.0,2.0,73,0.00,,,0.00,0,Wunderground v.1.15,2013-09-05 03:45:00,
2013-09-05 05:50:00,68.7,59.7,30.03,East,87,2.0,2.0,73,0.00,,,0.00,0,Wunderground v.1.15,2013-09-05 03:50:00,
2013-09-05 05:55:00,68.6,59.6,30.03,ENE,75,3.0,3.0,73,0.00,,,0.00,0,Wunderground v.1.15,2013-09-05 03:55:00,
2013-09-05 06:01:00,68.4,59.4,30.03,ENE,74,2.0,3.0,73,0.00,,,0.00,0,Wunderground v.1.15,2013-09-05 04:01:00,
2013-09-05 06:05:00,68.4,59.4,30.03,ENE,71,2.0,3.0,73,0.00,,,0.00,0,Wunderground v.1.15,2013-09-05 04:05:00,
2013-09-05 06:11:00,68.5,59.5,30.03,East,92,2.0,2.0,73,0.00,,,0.00,0,Wunderground v.1.15,2013-09-05 04:11:00,
2013-09-05 06:16:00,68.2,59.6,30.03,North,355,1.0,2.0,74,0.00,,,0.00,0,Wunderground v.1.15,2013-09-05 04:16:00,
2013-09-05 06:25:00,68.2,59.6,30.03,East,86,2.0,2.0,74,0.00,,,0.00,0,Wunderground v.1.15,2013-09-05 04:25:00,
2013-09-05 06:30:00,68.2,59.6,30.03,ENE,69,3.0,3.0,74,0.00,,,0.00,0,Wunderground v.1.15,2013-09-05 04:30:00,
2013-09-05 06:35:00,68.2,59.6,30.03,ENE,69,2.0,3.0,74,0.00,,,0.00,0,Wunderground v.1.15,2013-09-05 04:35:00,
2013-09-05 06:40:00,68.1,59.5,30.03,ENE,68,2.0,2.0,74,0.00,,,0.00,5,Wunderground v.1.15,2013-09-05 04:40:00,
2013-09-05 06:45:00,68.0,59.4,30.03,ENE,70,2.0,2.0,74,0.00,,,0.00,5,Wunderground v.1.15,2013-09-05 04:45:00,
2013-09-05 06:51:00,68.0,59.4,30.03,ENE,65,2.0,2.0,74,0.00,,,0.00,9,Wunderground v.1.15,2013-09-05 04:51:00,
2013-09-05 06:56:00,68.1,59.5,30.03,East,80,2.0,3.0,74,0.00,,,0.00,11,Wunderground v.1.15,2013-09-05 04:56:00,
2013-09-05 07:01:00,68.1,59.5,30.03,ENE,60,2.0,2.0,74,0.00,,,0.00,12,Wunderground v.1.15,2013-09-05 05:01:00,
2013-09-05 07:10:00,68.0,59.4,30.03,ENE,78,2.0,2.0,74,0.00,,,0.00,16,Wunderground v.1.15,2013-09-05 05:10:00,
2013-09-05 07:15:00,68.1,59.5,30.03,ENE,69,2.0,2.0,74,0.00,,,0.00,18,Wunderground v.1.15,2013-09-05 05:15:00,
2013-09-05 07:20:00,68.1,59.5,30.03,ENE,57,2.0,2.0,74,0.00,,,0.00,19,Wunderground v.1.15,2013-09-05 05:20:00,
2013-09-05 07:25:00,68.2,59.6,30.03,ENE,69,2.0,4.0,74,0.00,,,0.00,21,Wunderground v.1.15,2013-09-05 05:25:00,
2013-09-05 07:30:00,68.4,59.4,30.03,ENE,61,3.0,4.0,73,0.00,,,0.00,21,Wunderground v.1.15,2013-09-05 05:30:00,
2013-09-05 07:36:00,68.6,59.6,30.03,NE,54,3.0,4.0,73,0.00,,,0.00,23,Wunderground v.1.15,2013-09-05 05:36:00,
2013-09-05 07:41:00,68.8,59.8,30.03,ENE,63,3.0,3.0,73,0.00,,,0.00,25,Wunderground v.1.15,2013-09-05 05:41:00,
2013-09-05 07:46:00,69.0,60.0,30.03,NE,46,3.0,3.0,73,0.00,,,0.00,25,Wunderground v.1.15,2013-09-05 05:46:00,
2013-09-05 07:56:00,69.1,59.7,30.03,NE,55,3.0,4.0,72,0.00,,,0.00,26,Wunderground v.1.15,2013-09-05 05:56:00,
2013-09-05 08:05:00,69.5,59.7,30.03,NNE,31,3.0,3.0,71,0.00,,,0.00,62,Wunderground v.1.15,2013-09-05 06:05:00,
2013-09-05 08:10:00,69.7,59.9,30.03,NE,51,3.0,4.0,71,0.00,,,0.00,190,Wunderground v.1.15,2013-09-05 06:10:00,
2013-09-05 08:16:00,70.0,59.8,30.03,ENE,78,2.0,4.0,70,0.00,,,0.00,204,Wunderground v.1.15,2013-09-05 06:16:00,
2013-09-05 08:21:00,70.4,60.1,30.03,ENE,75,2.0,5.0,70,0.00,,,0.00,221,Wunderground v.1.15,2013-09-05 06:21:00,
2013-09-05 08:31:00,70.7,59.6,30.03,ENE,63,3.0,5.0,68,0.00,,,0.00,248,Wunderground v.1.15,2013-09-05 06:31:00,
2013-09-05 08:40:00,71.3,60.2,30.03,ENE,78,4.0,4.0,68,0.00,,,0.00,278,Wunderground v.1.15,2013-09-05 06:40:00,
2013-09-05 08:45:00,71.6,60.5,30.03,ENE,69,3.0,4.0,68,0.00,,,0.00,294,Wunderground v.1.15,2013-09-05 06:45:00,
2013-09-05 08:50:00,71.8,60.2,30.03,NNE,25,3.0,3.0,67,0.00,,,0.00,308,Wunderground v.1.15,2013-09-05 06:50:00,
2013-09-05 08:55:00,72.2,60.2,30.03,NE,46,3.0,3.0,66,0.00,,,0.00,322,Wunderground v.1.15,2013-09-05 06:55:00,
2013-09-05 09:00:00,72.5,60.5,30.03,East,81,3.0,3.0,66,0.00,,,0.00,334,Wunderground v.1.15,2013-09-05 07:00:00,
2013-09-05 09:06:00,72.9,60.4,30.03,ENE,63,3.0,3.0,65,0.00,,,0.00,350,Wunderground v.1.15,2013-09-05 07:06:00,
2013-09-05 09:11:00,73.3,60.8,30.04,NNE,13,3.0,3.0,65,0.00,,,0.00,364,Wunderground v.1.15,2013-09-05 07:11:00,
2013-09-05 09:16:00,73.8,60.9,30.04,NE,41,2.0,3.0,64,0.00,,,0.00,378,Wunderground v.1.15,2013-09-05 07:16:00,
2013-09-05 09:25:00,74.7,61.7,30.04,NE,41,1.0,1.0,64,0.00,,,0.00,406,Wunderground v.1.15,2013-09-05 07:25:00,
2013-09-05 09:30:00,74.9,61.5,30.04,NE,42,1.0,1.0,63,0.00,,,0.00,420,Wunderground v.1.15,2013-09-05 07:30:00,
2013-09-05 09:40:00,75.7,61.3,30.03,ENE,58,1.0,3.0,61,0.00,,,0.00,445,Wunderground v.1.15,2013-09-05 07:40:00,
2013-09-05 09:45:00,76.2,61.3,30.03,NE,50,2.0,3.0,60,0.00,,,0.00,459,Wunderground v.1.15,2013-09-05 07:45:00,
2013-09-05 09:51:00,76.4,60.5,30.03,NNE,29,1.0,2.0,58,0.00,,,0.00,469,Wunderground v.1.15,2013-09-05 07:51:00,
2013-09-05 09:56:00,76.8,60.9,30.04,NE,34,1.0,2.0,58,0.00,,,0.00,483,Wunderground v.1.15,2013-09-05 07:56:00,
2013-09-05 10:05:00,77.5,61.1,30.04,NNE,33,0.0,2.0,57,0.00,,,0.00,506,Wunderground v.1.15,2013-09-05 08:05:00,
2013-09-05 10:10:00,78.1,61.1,30.04,NE,47,1.0,1.0,56,0.00,,,0.00,517,Wunderground v.1.15,2013-09-05 08:10:00,
2013-09-05 10:15:00,78.6,61.1,30.04,NE,47,1.0,1.0,55,0.00,,,0.00,527,Wunderground v.1.15,2013-09-05 08:15:00,
2013-09-05 10:20:00,78.9,60.3,30.04,NE,47,0.0,0.0,53,0.00,,,0.00,534,Wunderground v.1.15,2013-09-05 08:20:00,
2013-09-05 10:26:00,79.6,61.0,30.04,NE,48,0.0,0.0,53,0.00,,,0.00,550,Wunderground v.1.15,2013-09-05 08:26:00,
2013-09-05 10:31:00,79.6,61.0,30.04,West,263,0.0,1.0,53,0.00,,,0.00,563,Wunderground v.1.15,2013-09-05 08:31:00,
2013-09-05 10:36:00,80.0,60.8,30.04,WSW,242,1.0,2.0,52,0.00,,,0.00,570,Wunderground v.1.15,2013-09-05 08:36:00,
2013-09-05 10:46:00,81.3,60.9,30.04,SW,218,1.0,2.0,50,0.00,,,0.00,591,Wunderground v.1.15,2013-09-05 08:46:00,
2013-09-05 10:55:00,81.6,60.0,30.03,South,182,1.0,3.0,48,0.00,,,0.00,608,Wunderground v.1.15,2013-09-05 08:55:00,
2013-09-05 11:00:00,81.9,58.5,30.03,SW,230,3.0,3.0,45,0.00,,,0.00,624,Wunderground v.1.15,2013-09-05 09:00:00,
2013-09-05 11:05:00,82.2,58.7,30.03,SSW,198,4.0,4.0,45,0.00,,,0.00,635,Wunderground v.1.15,2013-09-05 09:05:00,
2013-09-05 11:10:00,82.1,59.3,30.03,SSE,162,3.0,4.0,46,0.00,,,0.00,645,Wunderground v.1.15,2013-09-05 09:10:00,
2013-09-05 11:21:00,82.4,59.5,30.03,South,181,4.0,5.0,46,0.00,,,0.00,659,Wunderground v.1.15,2013-09-05 09:21:00,
2013-09-05 11:26:00,82.2,60.0,30.02,ESE,104,4.0,5.0,47,0.00,,,0.00,666,Wunderground v.1.15,2013-09-05 09:26:00,
2013-09-05 11:35:00,83.7,60.1,30.02,SSE,163,2.0,4.0,45,0.00,,,0.00,680,Wunderground v.1.15,2013-09-05 09:35:00,
2013-09-05 11:40:00,83.9,59.0,30.02,ESE,104,1.0,1.0,43,0.00,,,0.00,694,Wunderground v.1.15,2013-09-05 09:40:00,
2013-09-05 11:45:00,84.1,57.9,30.01,ESE,111,2.0,2.0,41,0.00,,,0.00,696,Wunderground v.1.15,2013-09-05 09:45:00,
2013-09-05 11:55:00,84.0,57.1,30.00,ESE,111,2.0,2.0,40,0.00,,,0.00,705,Wunderground v.1.15,2013-09-05 09:55:00,
2013-09-05 12:01:00,83.8,56.9,30.00,WSW,257,3.0,3.0,40,0.00,,,0.00,707,Wunderground v.1.15,2013-09-05 10:01:00,
2013-09-05 12:06:00,84.2,57.3,30.00,NNE,27,2.0,3.0,40,0.00,,,0.00,715,Wunderground v.1.15,2013-09-05 10:06:00,
2013-09-05 12:15:00,84.7,57.7,30.00,ENE,78,2.0,4.0,40,0.00,,,0.00,724,Wunderground v.1.15,2013-09-05 10:15:00,
2013-09-05 12:20:00,85.1,60.1,29.99,ENE,57,2.0,2.0,43,0.00,,,0.00,728,Wunderground v.1.15,2013-09-05 10:20:00,
2013-09-05 12:25:00,84.8,57.1,29.99,ESE,113,2.0,2.0,39,0.00,,,0.00,728,Wunderground v.1.15,2013-09-05 10:25:00,
2013-09-05 12:30:00,84.6,58.3,29.99,ESE,122,2.0,2.0,41,0.00,,,0.00,722,Wunderground v.1.15,2013-09-05 10:30:00,
2013-09-05 12:35:00,84.7,58.4,29.99,SE,140,2.0,3.0,41,0.00,,,0.00,728,Wunderground v.1.15,2013-09-05 10:35:00,
2013-09-05 12:41:00,84.9,58.6,29.99,SSE,163,2.0,5.0,41,0.00,,,0.00,724,Wunderground v.1.15,2013-09-05 10:41:00,
2013-09-05 12:46:00,85.2,60.8,29.99,North,360,2.0,5.0,44,0.00,,,0.00,726,Wunderground v.1.15,2013-09-05 10:46:00,
2013-09-05 12:51:00,85.3,59.6,29.99,WSW,240,3.0,3.0,42,0.00,,,0.00,726,Wunderground v.1.15,2013-09-05 10:51:00,
2013-09-05 13:00:00,85.6,59.9,29.98,SSE,156,3.0,3.0,42,0.00,,,0.00,742,Wunderground v.1.15,2013-09-05 11:00:00,
2013-09-05 13:05:00,85.5,61.1,29.98,SSE,148,3.0,5.0,44,0.00,,,0.00,773,Wunderground v.1.15,2013-09-05 11:05:00,
2013-09-05 13:10:00,85.2,63.9,29.98,South,174,4.0,4.0,49,0.00,,,0.00,786,Wunderground v.1.15,2013-09-05 11:10:00,
2013-09-05 13:15:00,85.7,64.9,29.98,SSE,166,4.0,7.0,50,0.00,,,0.00,770,Wunderground v.1.15,2013-09-05 11:15:00,
2013-09-05 13:21:00,85.4,64.6,29.98,SSE,161,4.0,8.0,50,0.00,,,0.00,747,Wunderground v.1.15,2013-09-05 11:21:00,
2013-09-05 13:26:00,85.2,64.5,29.97,SSE,161,5.0,8.0,50,0.00,,,0.00,744,Wunderground v.1.15,2013-09-05 11:26:00,
2013-09-05 13:31:00,85.4,62.9,29.97,SSE,158,6.0,7.0,47,0.00,,,0.00,744,Wunderground v.1.15,2013-09-05 11:31:00,
2013-09-05 13:36:00,85.5,62.4,29.97,South,182,5.0,7.0,46,0.00,,,0.00,740,Wunderground v.1.15,2013-09-05 11:36:00,
2013-09-05 13:41:00,85.6,62.4,29.97,SE,138,4.0,5.0,46,0.00,,,0.00,735,Wunderground v.1.15,2013-09-05 11:41:00,
2013-09-05 13:50:00,85.3,61.6,29.97,South,190,4.0,4.0,45,0.00,,,0.00,729,Wunderground v.1.15,2013-09-05 11:50:00,
2013-09-05 13:55:00,85.8,60.7,29.97,South,169,3.0,5.0,43,0.00,,,0.00,714,Wunderground v.1.15,2013-09-05 11:55:00,
2013-09-05 14:00:00,86.4,60.6,29.97,SE,135,3.0,3.0,42,0.00,,,0.00,717,Wunderground v.1.15,2013-09-05 12:00:00,
2013-09-05 14:06:00,86.2,63.0,29.97,SSE,159,3.0,4.0,46,0.00,,,0.00,722,Wunderground v.1.15,2013-09-05 12:06:00,
2013-09-05 14:16:00,85.5,63.0,29.97,SSE,166,5.0,5.0,47,0.00,,,0.00,703,Wunderground v.1.15,2013-09-05 12:16:00,
2013-09-05 14:21:00,86.0,65.2,29.97,SSW,195,4.0,5.0,50,0.00,,,0.00,701,Wunderground v.1.15,2013-09-05 12:21:00,
2013-09-05 14:30:00,85.3,64.6,29.97,SSE,167,6.0,9.0,50,0.00,,,0.00,694,Wunderground v.1.15,2013-09-05 12:30:00,
2013-09-05 14:35:00,85.6,63.7,29.97,SSE,153,7.0,9.0,48,0.00,,,0.00,682,Wunderground v.1.15,2013-09-05 12:35:00,
2013-09-05 14:40:00,85.3,65.1,29.97,SSE,154,6.0,7.0,51,0.00,,,0.00,682,Wunderground v.1.15,2013-09-05 12:40:00,
2013-09-05 14:45:00,84.5,64.9,29.97,SSE,165,8.0,17.0,52,0.00,,,0.00,675,Wunderground v.1.15,2013-09-05 12:45:00,
2013-09-05 14:50:00,83.6,65.7,29.97,SW,227,9.0,9.0,55,0.00,,,0.00,666,Wunderground v.1.15,2013-09-05 12:50:00,
2013-09-05 14:56:00,83.3,65.4,29.97,SSW,213,8.0,9.0,55,0.00,,,0.00,661,Wunderground v.1.15,2013-09-05 12:56:00,
2013-09-05 15:01:00,83.1,65.3,29.96,SE,146,7.0,7.0,55,0.00,,,0.00,656,Wunderground v.1.15,2013-09-05 13:01:00,
2013-09-05 15:10:00,82.8,65.0,29.97,South,178,9.0,9.0,55,0.00,,,0.00,635,Wunderground v.1.15,2013-09-05 13:10:00,
2013-09-05 15:15:00,82.5,64.7,29.97,SSE,160,10.0,16.0,55,0.00,,,0.00,626,Wunderground v.1.15,2013-09-05 13:15:00,
2013-09-05 15:20:00,82.4,66.6,29.96,SSE,159,10.0,10.0,59,0.00,,,0.00,619,Wunderground v.1.15,2013-09-05 13:20:00,
2013-09-05 15:25:00,82.2,66.9,29.97,SW,235,9.0,14.0,60,0.00,,,0.00,605,Wunderground v.1.15,2013-09-05 13:25:00,
2013-09-05 15:31:00,82.7,67.9,29.96,SE,133,8.0,8.0,61,0.00,,,0.00,601,Wunderground v.1.15,2013-09-05 13:31:00,
2013-09-05 15:36:00,82.2,67.9,29.96,SW,230,7.0,8.0,62,0.00,,,0.00,591,Wunderground v.1.15,2013-09-05 13:36:00,
2013-09-05 15:41:00,82.2,67.9,29.96,SSE,167,6.0,9.0,62,0.00,,,0.00,580,Wunderground v.1.15,2013-09-05 13:41:00,
2013-09-05 15:50:00,83.2,68.3,29.96,South,190,4.0,8.0,61,0.00,,,0.00,563,Wunderground v.1.15,2013-09-05 13:50:00,
2013-09-05 16:00:00,82.2,67.4,29.96,SSW,198,6.0,6.0,61,0.00,,,0.00,540,Wunderground v.1.15,2013-09-05 14:00:00,
2013-09-05 16:05:00,81.8,67.0,29.96,West,270,7.0,10.0,61,0.00,,,0.00,529,Wunderground v.1.15,2013-09-05 14:05:00,
2013-09-05 16:10:00,82.0,66.7,29.96,WSW,250,8.0,10.0,60,0.00,,,0.00,517,Wunderground v.1.15,2013-09-05 14:10:00,
2013-09-05 16:16:00,81.6,66.4,29.96,SSW,211,9.0,10.0,60,0.00,,,0.00,501,Wunderground v.1.15,2013-09-05 14:16:00,
2013-09-05 16:21:00,82.5,66.7,29.96,SW,232,8.0,8.0,59,0.00,,,0.00,487,Wunderground v.1.15,2013-09-05 14:21:00,
2013-09-05 16:31:00,81.5,64.8,29.96,WSW,239,9.0,9.0,57,0.00,,,0.00,469,Wunderground v.1.15,2013-09-05 14:31:00,
2013-09-05 16:40:00,82.2,62.8,29.96,SSE,166,4.0,4.0,52,0.00,,,0.00,439,Wunderground v.1.15,2013-09-05 14:40:00,
2013-09-05 16:45:00,82.0,61.0,29.96,West,263,4.0,4.0,49,0.00,,,0.00,427,Wunderground v.1.15,2013-09-05 14:45:00,
2013-09-05 16:50:00,82.7,59.8,29.96,South,187,5.0,5.0,46,0.00,,,0.00,413,Wunderground v.1.15,2013-09-05 14:50:00,
2013-09-05 16:56:00,82.6,59.7,29.96,South,169,5.0,6.0,46,0.00,,,0.00,401,Wunderground v.1.15,2013-09-05 14:56:00,
2013-09-05 17:01:00,82.2,58.7,29.96,South,188,5.0,5.0,45,0.00,,,0.00,392,Wunderground v.1.15,2013-09-05 15:01:00,
2013-09-05 17:06:00,82.5,58.4,29.96,WSW,237,5.0,9.0,44,0.00,,,0.00,376,Wunderground v.1.15,2013-09-05 15:06:00,
2013-09-05 17:11:00,82.6,58.5,29.96,WNW,301,6.0,6.0,44,0.00,,,0.00,364,Wunderground v.1.15,2013-09-05 15:11:00,
2013-09-05 17:20:00,82.2,59.4,29.96,SW,217,6.0,10.0,46,0.00,,,0.00,334,Wunderground v.1.15,2013-09-05 15:20:00,
2013-09-05 17:25:00,82.3,60.6,29.96,SW,232,6.0,10.0,48,0.00,,,0.00,320,Wunderground v.1.15,2013-09-05 15:25:00,
2013-09-05 17:30:00,82.5,60.8,29.96,SW,221,6.0,9.0,48,0.00,,,0.00,308,Wunderground v.1.15,2013-09-05 15:30:00,
2013-09-05 17:35:00,81.9,62.0,29.95,SSW,205,7.0,9.0,51,0.00,,,0.00,294,Wunderground v.1.15,2013-09-05 15:35:00,
2013-09-05 17:41:00,81.8,62.5,29.95,SW,232,7.0,11.0,52,0.00,,,0.00,278,Wunderground v.1.15,2013-09-05 15:41:00,
2013-09-05 17:46:00,81.6,63.3,29.95,West,263,7.0,11.0,54,0.00,,,0.00,262,Wunderground v.1.15,2013-09-05 15:46:00,
2013-09-05 17:51:00,81.6,62.8,29.95,West,261,7.0,7.0,53,0.00,,,0.00,248,Wunderground v.1.15,2013-09-05 15:51:00,
2013-09-05 18:00:00,81.5,63.8,29.94,WSW,239,6.0,6.0,55,0.00,,,0.00,220,Wunderground v.1.15,2013-09-05 16:00:00,
2013-09-05 18:05:00,81.2,64.0,29.94,SSW,204,6.0,6.0,56,0.00,,,0.00,206,Wunderground v.1.15,2013-09-05 16:05:00,
2013-09-05 18:10:00,81.2,64.5,29.94,SW,227,6.0,7.0,57,0.00,,,0.00,190,Wunderground v.1.15,2013-09-05 16:10:00,
2013-09-05 18:15:00,81.2,64.5,29.94,West,271,6.0,7.0,57,0.00,,,0.00,171,Wunderground v.1.15,2013-09-05 16:15:00,
2013-09-05 18:21:00,81.2,65.0,29.94,WSW,240,5.0,6.0,58,0.00,,,0.00,153,Wunderground v.1.15,2013-09-05 16:21:00,
2013-09-05 18:26:00,81.1,65.4,29.94,West,275,5.0,9.0,59,0.00,,,0.00,135,Wunderground v.1.15,2013-09-05 16:26:00,
2013-09-05 18:35:00,80.8,66.1,29.94,SW,231,4.0,6.0,61,0.00,,,0.00,105,Wunderground v.1.15,2013-09-05 16:35:00,
2013-09-05 18:40:00,80.7,65.5,29.94,WSW,257,3.0,5.0,60,0.00,,,0.00,90,Wunderground v.1.15,2013-09-05 16:40:00,
2013-09-05 18:45:00,80.4,65.7,29.94,SW,215,5.0,5.0,61,0.00,,,0.00,76,Wunderground v.1.15,2013-09-05 16:45:00,
2013-09-05 18:50:00,80.1,65.4,29.94,SW,225,5.0,5.0,61,0.00,,,0.00,62,Wunderground v.1.15,2013-09-05 16:50:00,
2013-09-05 18:55:00,80.0,65.8,29.94,SW,221,5.0,6.0,62,0.00,,,0.00,49,Wunderground v.1.15,2013-09-05 16:55:00,
2013-09-05 19:01:00,79.9,66.2,29.94,WSW,238,5.0,8.0,63,0.00,,,0.00,39,Wunderground v.1.15,2013-09-05 17:01:00,
2013-09-05 19:06:00,79.5,65.8,29.94,WSW,240,5.0,8.0,63,0.00,,,0.00,30,Wunderground v.1.15,2013-09-05 17:06:00,
2013-09-05 19:15:00,78.8,66.5,29.94,WSW,242,4.0,6.0,66,0.00,,,0.00,18,Wunderground v.1.15,2013-09-05 17:15:00,
2013-09-05 19:20:00,78.6,66.7,29.94,WSW,238,3.0,3.0,67,0.00,,,0.00,14,Wunderground v.1.15,2013-09-05 17:20:00,
2013-09-05 19:25:00,78.3,66.9,29.94,SW,226,3.0,4.0,68,0.00,,,0.00,11,Wunderground v.1.15,2013-09-05 17:25:00,
2013-09-05 19:31:00,78.3,66.9,29.94,WSW,242,4.0,4.0,68,0.00,,,0.00,7,Wunderground v.1.15,2013-09-05 17:31:00,
2013-09-05 19:36:00,78.1,67.1,29.94,West,259,4.0,4.0,69,0.00,,,0.00,5,Wunderground v.1.15,2013-09-05 17:36:00,
2013-09-05 19:41:00,77.9,67.3,29.94,SW,234,2.0,2.0,70,0.00,,,0.00,0,Wunderground v.1.15,2013-09-05 17:41:00,
2013-09-05 19:50:00,77.6,67.4,29.95,SW,234,2.0,3.0,71,0.00,,,0.00,0,Wunderground v.1.15,2013-09-05 17:50:00,
2013-09-05 19:55:00,77.3,67.6,29.95,WSW,240,3.0,3.0,72,0.00,,,0.00,0,Wunderground v.1.15,2013-09-05 17:55:00,
2013-09-05 20:00:00,77.3,67.6,29.95,SSW,198,3.0,3.0,72,0.00,,,0.00,0,Wunderground v.1.15,2013-09-05 18:00:00,
2013-09-05 20:05:00,77.4,68.1,29.95,SSW,192,1.0,3.0,73,0.00,,,0.00,0,Wunderground v.1.15,2013-09-05 18:05:00,
2013-09-05 20:11:00,77.4,68.1,29.95,South,188,1.0,1.0,73,0.00,,,0.00,0,Wunderground v.1.15,2013-09-05 18:11:00,
2013-09-05 20:16:00,77.3,68.4,29.95,South,188,1.0,1.0,74,0.00,,,0.00,0,Wunderground v.1.15,2013-09-05 18:16:00,
2013-09-05 20:25:00,77.2,68.3,29.96,South,188,1.0,1.0,74,0.00,,,0.00,0,Wunderground v.1.15,2013-09-05 18:25:00,
2013-09-05 20:30:00,77.2,68.7,29.96,South,188,0.0,0.0,75,0.00,,,0.00,0,Wunderground v.1.15,2013-09-05 18:30:00,
2013-09-05 20:35:00,77.4,68.5,29.96,South,188,0.0,0.0,74,0.00,,,0.00,0,Wunderground v.1.15,2013-09-05 18:35:00,
2013-09-05 20:41:00,77.6,68.7,29.96,South,188,0.0,0.0,74,0.00,,,0.00,0,Wunderground v.1.15,2013-09-05 18:41:00,
2013-09-05 20:46:00,77.3,68.4,29.96,South,188,0.0,0.0,74,0.00,,,0.00,0,Wunderground v.1.15,2013-09-05 18:46:00,
2013-09-05 20:51:00,77.0,68.5,29.96,South,188,0.0,1.0,75,0.00,,,0.00,0,Wunderground v.1.15,2013-09-05 18:51:00,
2013-09-05 21:00:00,76.8,68.3,29.96,South,188,0.0,0.0,75,0.00,,,0.00,0,Wunderground v.1.15,2013-09-05 19:00:00,
2013-09-05 21:05:00,76.7,68.2,29.96,South,188,0.0,1.0,75,0.00,,,0.00,0,Wunderground v.1.15,2013-09-05 19:05:00,
2013-09-05 21:10:00,76.7,68.2,29.96,South,188,0.0,0.0,75,0.00,,,0.00,0,Wunderground v.1.15,2013-09-05 19:10:00,
2013-09-05 21:16:00,76.6,68.1,29.96,South,188,0.0,0.0,75,0.00,,,0.00,0,Wunderground v.1.15,2013-09-05 19:16:00,
2013-09-05 21:21:00,76.7,68.2,29.96,South,188,0.0,0.0,75,0.00,,,0.00,0,Wunderground v.1.15,2013-09-05 19:21:00,
2013-09-05 21:30:00,76.4,68.3,29.95,South,188,1.0,2.0,76,0.00,,,0.00,0,Wunderground v.1.15,2013-09-05 19:30:00,
2013-09-05 21:35:00,76.1,68.4,29.95,East,82,1.0,2.0,77,0.00,,,0.00,0,Wunderground v.1.15,2013-09-05 19:35:00,
2013-09-05 21:40:00,76.0,68.3,29.95,East,82,2.0,2.0,77,0.00,,,0.00,0,Wunderground v.1.15,2013-09-05 19:40:00,
2013-09-05 21:45:00,76.1,68.4,29.95,East,82,1.0,2.0,77,0.00,,,0.00,0,Wunderground v.1.15,2013-09-05 19:45:00,
2013-09-05 21:51:00,76.1,68.4,29.95,East,82,1.0,1.0,77,0.00,,,0.00,0,Wunderground v.1.15,2013-09-05 19:51:00,
2013-09-05 21:56:00,76.2,68.5,29.95,East,82,1.0,1.0,77,0.00,,,0.00,0,Wunderground v.1.15,2013-09-05 19:56:00,
2013-09-05 22:01:00,76.2,68.1,29.95,East,82,0.0,0.0,76,0.00,,,0.00,0,Wunderground v.1.15,2013-09-05 20:01:00,
2013-09-05 22:10:00,75.9,68.2,29.95,East,82,0.0,0.0,77,0.00,,,0.00,0,Wunderground v.1.15,2013-09-05 20:10:00,
2013-09-05 22:15:00,75.7,68.0,29.95,East,82,0.0,0.0,77,0.00,,,0.00,0,Wunderground v.1.15,2013-09-05 20:15:00,
2013-09-05 22:20:00,75.6,68.3,29.95,East,82,1.0,3.0,78,0.00,,,0.00,0,Wunderground v.1.15,2013-09-05 20:20:00,
2013-09-05 22:25:00,75.6,68.3,29.95,ENE,65,1.0,3.0,78,0.00,,,0.00,0,Wunderground v.1.15,2013-09-05 20:25:00,
2013-09-05 22:31:00,75.6,68.3,29.95,ENE,65,2.0,2.0,78,0.00,,,0.00,0,Wunderground v.1.15,2013-09-05 20:31:00,
2013-09-05 22:36:00,75.6,68.3,29.95,ENE,65,2.0,2.0,78,0.00,,,0.00,0,Wunderground v.1.15,2013-09-05 20:36:00,
2013-09-05 22:41:00,75.6,68.3,29.95,ENE,65,2.0,3.0,78,0.00,,,0.00,0,Wunderground v.1.15,2013-09-05 20:41:00,
2013-09-05 22:50:00,75.6,67.9,29.94,ENE,65,2.0,3.0,77,0.00,,,0.00,0,Wunderground v.1.15,2013-09-05 20:50:00,
2013-09-05 22:55:00,75.5,68.2,29.94,ENE,65,2.0,3.0,78,0.00,,,0.00,0,Wunderground v.1.15,2013-09-05 20:55:00,
2013-09-05 23:00:00,75.2,67.9,29.94,ENE,65,1.0,1.0,78,0.00,,,0.00,0,Wunderground v.1.15,2013-09-05 21:00:00,
2013-09-05 23:06:00,75.1,67.8,29.94,ENE,64,1.0,1.0,78,0.00,,,0.00,0,Wunderground v.1.15,2013-09-05 21:06:00,
2013-09-05 23:11:00,75.3,68.0,29.94,NE,48,2.0,2.0,78,0.00,,,0.00,0,Wunderground v.1.15,2013-09-05 21:11:00,
2013-09-05 23:16:00,75.3,68.0,29.94,NE,48,2.0,2.0,78,0.00,,,0.00,0,Wunderground v.1.15,2013-09-05 21:16:00,
2013-09-05 23:25:00,75.0,67.7,29.94,NE,48,0.0,1.0,78,0.00,,,0.00,0,Wunderground v.1.15,2013-09-05 21:25:00,
2013-09-05 23:30:00,74.9,67.6,29.94,NE,48,0.0,1.0,78,0.00,,,0.00,0,Wunderground v.1.15,2013-09-05 21:30:00,
2013-09-05 23:35:00,74.9,67.9,29.94,NE,48,0.0,1.0,79,0.00,,,0.00,0,Wunderground v.1.15,2013-09-05 21:35:00,
2013-09-05 23:40:00,74.5,67.6,29.94,NE,48,0.0,0.0,79,0.00,,,0.00,0,Wunderground v.1.15,2013-09-05 21:40:00,
2013-09-05 23:46:00,74.2,67.3,29.94,NE,48,0.0,0.0,79,0.00,,,0.00,0,Wunderground v.1.15,2013-09-05 21:46:00,
2013-09-05 23:51:00,74.1,67.2,29.94,NE,48,0.0,2.0,79,0.00,,,0.00,0,Wunderground v.1.15,2013-09-05 21:51:00,